Time;durP1;ratioP1;P1;durP2;ratioP2;P2;SDS_P1;SDS_P2;PMS_P1;PMS_P2;Temp;Humidity;BMP_temperature;BMP_pressure;BME280_temperature;BME280_humidity;BME280_pressure;Samples;Min_cycle;Max_cycle;Signal;HPM_P1;HPM_P2
2022/06/08 00:00:11;;;;;;;2.73;2.50;;;15.70;86.70;;;;;;5056905;28;20439;-78
2022/06/08 00:02:39;;;;;;;2.77;2.30;;;15.70;87.40;;;;;;5055298;28;20484;-77
2022/06/08 00:05:06;;;;;;;2.83;2.60;;;15.70;88.00;;;;;;5050403;28;20481;-78
2022/06/08 00:07:33;;;;;;;2.77;2.57;;;15.60;89.70;;;;;;5041770;28;20515;-78
2022/06/08 00:10:00;;;;;;;2.73;2.40;;;15.50;90.00;;;;;;5054041;28;20424;-78
2022/06/08 00:12:29;;;;;;;4.13;2.60;;;15.50;90.80;;;;;;5054786;28;20420;-78
2022/06/08 00:14:55;;;;;;;3.50;2.97;;;15.50;91.70;;;;;;5050253;28;20915;-78
2022/06/08 00:17:22;;;;;;;4.00;2.60;;;15.40;92.20;;;;;;5042989;28;20491;-78
2022/06/08 00:19:49;;;;;;;3.30;3.00;;;15.40;92.50;;;;;;5050925;28;20475;-77
2022/06/08 00:22:18;;;;;;;3.00;2.80;;;15.40;92.80;;;;;;5059815;28;20469;-78
2022/06/08 00:24:45;;;;;;;4.00;2.43;;;15.40;93.40;;;;;;5071486;28;20512;-78
2022/06/08 00:27:12;;;;;;;2.97;2.37;;;15.30;93.50;;;;;;5074813;28;20483;-77
2022/06/08 00:29:40;;;;;;;3.20;2.90;;;15.30;93.50;;;;;;5068088;28;20493;-77
2022/06/08 00:32:08;;;;;;;7.00;2.73;;;15.30;93.60;;;;;;5071210;28;20442;-77
2022/06/08 00:34:36;;;;;;;3.43;3.00;;;15.20;93.90;;;;;;5074965;28;20552;-80
2022/06/08 00:37:03;;;;;;;3.20;2.60;;;15.20;94.20;;;;;;5073763;28;20482;-78
2022/06/08 00:39:29;;;;;;;6.27;2.67;;;15.20;94.70;;;;;;5072913;28;20461;-78
2022/06/08 00:42:00;;;;;;;4.50;3.03;;;15.10;95.00;;;;;;5067200;28;20491;-78
2022/06/08 00:44:31;;;;;;;8.80;3.37;;;15.10;95.20;;;;;;5060072;28;20453;-78
2022/06/08 00:47:01;;;;;;;6.00;2.70;;;15.00;95.50;;;;;;5052594;28;20504;-78
2022/06/08 00:49:31;;;;;;;6.27;3.20;;;15.00;96.00;;;;;;5066246;28;20468;-78
2022/06/08 00:52:00;;;;;;;3.70;3.10;;;15.00;95.70;;;;;;5053052;28;20471;-78
2022/06/08 00:54:31;;;;;;;4.50;3.03;;;15.00;96.10;;;;;;5050294;28;20456;-78
2022/06/08 00:57:01;;;;;;;3.10;2.73;;;14.90;96.60;;;;;;5053373;28;20499;-78
2022/06/08 00:59:29;;;;;;;5.80;3.27;;;14.90;96.60;;;;;;5046788;28;20447;-78
2022/06/08 01:01:56;;;;;;;6.43;2.47;;;14.90;96.60;;;;;;5054497;28;20523;-78
2022/06/08 01:04:24;;;;;;;5.43;2.90;;;14.80;96.90;;;;;;5056762;28;20435;-78
2022/06/08 01:06:55;;;;;;;7.40;2.90;;;14.80;97.60;;;;;;5050207;28;20458;-79
2022/06/08 01:09:28;;;;;;;5.93;3.50;;;14.80;98.30;;;;;;5055247;28;20477;-79
2022/06/08 01:11:58;;;;;;;3.23;2.93;;;14.80;98.40;;;;;;5052403;28;20517;-79
2022/06/08 01:14:26;;;;;;;3.30;2.80;;;14.90;98.60;;;;;;5049509;28;20525;-79
2022/06/08 01:16:58;;;;;;;4.20;2.50;;;14.90;98.10;;;;;;5048854;28;20465;-80
2022/06/08 01:19:27;;;;;;;3.30;2.83;;;14.90;98.10;;;;;;5051100;28;21032;-79
2022/06/08 01:21:58;;;;;;;3.00;2.70;;;14.90;98.00;;;;;;5051976;28;20468;-79
2022/06/08 01:24:27;;;;;;;3.03;2.83;;;14.90;98.00;;;;;;5043970;28;20467;-78
2022/06/08 01:27:09;;;;;;;8.50;2.73;;;15.00;97.60;;;;;;5042466;28;20463;-78
2022/06/08 01:29:42;;;;;;;3.03;2.77;;;15.00;97.40;;;;;;5055570;28;20798;-79
2022/06/08 01:32:23;;;;;;;3.13;2.83;;;14.90;97.00;;;;;;5049867;28;20445;-79
2022/06/08 01:35:06;;;;;;;7.70;2.60;;;14.90;97.10;;;;;;5053962;28;20495;-78
2022/06/08 01:37:47;;;;;;;5.13;2.97;;;14.90;97.00;;;;;;5054183;28;20506;-78
2022/06/08 01:40:27;;;;;;;5.00;2.87;;;14.90;96.90;;;;;;5054613;28;20467;-79
2022/06/08 01:43:21;;;;;;;3.40;2.60;;;14.90;96.90;;;;;;5051915;28;20429;-79
2022/06/08 01:46:01;;;;;;;2.88;2.63;;;14.80;96.90;;;;;;5036694;28;20830;-79
2022/06/08 01:48:47;;;;;;;4.80;2.77;;;14.80;96.50;;;;;;5054980;28;20230;-79
2022/06/08 01:51:26;;;;;;;3.10;2.60;;;14.80;96.00;;;;;;5059809;28;20637;-79
2022/06/08 01:54:04;;;;;;;4.70;2.90;;;14.80;96.20;;;;;;5048886;28;20448;-78
2022/06/08 01:56:41;;;;;;;6.50;3.23;;;14.80;95.90;;;;;;5063274;28;20503;-78
2022/06/08 01:59:21;;;;;;;3.40;2.90;;;14.80;95.90;;;;;;5063355;28;20544;-79
2022/06/08 02:01:54;;;;;;;5.63;2.70;;;14.70;96.40;;;;;;5060828;28;20439;-79
2022/06/08 02:04:28;;;;;;;2.93;2.63;;;14.70;96.40;;;;;;5066462;28;20532;-79
2022/06/08 02:07:00;;;;;;;5.27;2.90;;;14.70;96.70;;;;;;5066703;28;20541;-78
2022/06/08 02:09:36;;;;;;;3.73;3.33;;;14.80;96.80;;;;;;5057662;28;20463;-79
2022/06/08 02:12:06;;;;;;;4.53;3.30;;;14.80;96.40;;;;;;5063232;28;20464;-79
2022/06/08 02:14:37;;;;;;;4.13;3.10;;;14.80;96.20;;;;;;5058158;28;20462;-79
2022/06/08 02:17:10;;;;;;;3.70;2.83;;;14.80;96.00;;;;;;5061622;28;20522;-80
2022/06/08 02:19:42;;;;;;;5.97;2.87;;;14.70;96.20;;;;;;5056554;28;20443;-80
2022/06/08 02:22:14;;;;;;;3.53;3.23;;;14.70;96.20;;;;;;5046682;28;20447;-80
2022/06/08 02:24:50;;;;;;;4.00;3.23;;;14.50;96.70;;;;;;5050597;28;20481;-79
2022/06/08 02:27:22;;;;;;;4.70;2.90;;;14.50;97.40;;;;;;5053715;28;20525;-79
2022/06/08 02:29:54;;;;;;;3.33;2.80;;;14.40;98.50;;;;;;5059055;28;20435;-80
2022/06/08 02:35:14;;;;;;;7.90;3.65;;;14.30;99.00;;;;;;5065219;28;20414;-81
2022/06/08 02:37:45;;;;;;;4.17;3.20;;;14.20;99.80;;;;;;5054109;28;20229;-80
2022/06/08 02:40:17;;;;;;;5.60;3.25;;;14.20;99.90;;;;;;5057301;28;20443;-80
2022/06/08 02:42:47;;;;;;;5.83;3.90;;;14.10;99.90;;;;;;5058151;28;20238;-79
2022/06/08 02:45:16;;;;;;;6.00;3.17;;;14.10;99.90;;;;;;5064250;28;20828;-80
2022/06/08 02:47:46;;;;;;;4.53;3.73;;;14.10;99.90;;;;;;5065192;28;20550;-79
2022/06/08 02:50:16;;;;;;;3.53;3.17;;;14.10;99.90;;;;;;5070039;28;20439;-80
2022/06/08 02:52:45;;;;;;;3.57;3.20;;;14.10;99.90;;;;;;5061134;28;20479;-79
2022/06/08 02:55:19;;;;;;;3.50;2.83;;;14.10;99.90;;;;;;5061332;28;20478;-80
2022/06/08 02:57:52;;;;;;;3.17;2.87;;;14.10;99.90;;;;;;5056057;28;20472;-79
2022/06/08 03:00:23;;;;;;;5.17;3.10;;;14.10;99.90;;;;;;5053381;28;20443;-79
2022/06/08 03:02:56;;;;;;;4.30;2.90;;;14.00;99.90;;;;;;5037855;28;20804;-79
2022/06/08 03:05:28;;;;;;;7.03;3.30;;;14.00;99.90;;;;;;5042919;28;20968;-78
2022/06/08 03:07:59;;;;;;;3.25;2.95;;;14.00;99.90;;;;;;5050032;28;20496;-78
2022/06/08 03:10:31;;;;;;;3.03;2.83;;;13.90;99.90;;;;;;5042330;28;20222;-78
2022/06/08 03:13:05;;;;;;;3.75;3.00;;;13.80;99.90;;;;;;5041062;28;20547;-78
2022/06/08 03:15:33;;;;;;;3.50;3.20;;;13.80;99.90;;;;;;5037707;28;20218;-79
2022/06/08 03:18:00;;;;;;;5.45;3.17;;;13.80;99.90;;;;;;5046622;28;20222;-79
2022/06/08 03:20:28;;;;;;;5.03;3.30;;;13.80;99.90;;;;;;5058463;28;20208;-79
2022/06/08 03:22:55;;;;;;;3.15;2.75;;;13.80;99.90;;;;;;5037022;28;20206;-80
2022/06/08 03:25:23;;;;;;;4.90;3.30;;;13.80;99.90;;;;;;5044075;28;20216;-80
2022/06/08 03:27:51;;;;;;;3.22;3.00;;;13.80;99.90;;;;;;5062908;28;20321;-80
2022/06/08 03:30:18;;;;;;;4.70;3.15;;;13.90;99.90;;;;;;5045837;28;20285;-79
2022/06/08 03:32:45;;;;;;;2.70;2.50;;;14.00;99.90;;;;;;5045195;28;20206;-80
2022/06/08 03:35:13;;;;;;;3.05;2.63;;;14.00;99.90;;;;;;5047715;28;20213;-79
2022/06/08 03:37:39;;;;;;;3.85;2.50;;;14.00;99.90;;;;;;5049914;28;20521;-79
2022/06/08 03:40:08;;;;;;;3.30;3.10;;;14.00;99.90;;;;;;5049968;28;20241;-78
2022/06/08 03:42:35;;;;;;;3.73;2.90;;;13.90;99.90;;;;;;5054549;28;20210;-80
2022/06/08 03:45:04;;;;;;;3.53;3.22;;;14.00;99.90;;;;;;5055291;28;20473;-79
2022/06/08 03:47:37;;;;;;;3.85;3.00;;;14.00;99.70;;;;;;5054555;28;20318;-78
2022/06/08 03:50:08;;;;;;;4.90;3.00;;;14.20;99.70;;;;;;5057942;28;20316;-78
2022/06/08 03:52:47;;;;;;;4.18;3.60;;;14.30;99.30;;;;;;5059466;28;20716;-79
2022/06/08 03:55:19;;;;;;;7.18;3.30;;;14.40;97.80;;;;;;5056190;28;20202;-78
2022/06/08 03:57:46;;;;;;;4.28;3.10;;;14.50;96.70;;;;;;5058130;28;20230;-79
2022/06/08 04:00:16;;;;;;;3.15;2.80;;;14.60;95.20;;;;;;5052999;28;20542;-80
2022/06/08 04:02:44;;;;;;;3.03;2.70;;;14.70;94.00;;;;;;5057038;28;20214;-80
2022/06/08 04:05:12;;;;;;;3.30;2.77;;;14.80;92.90;;;;;;5065393;28;20203;-79
2022/06/08 04:07:39;;;;;;;4.75;2.97;;;14.90;91.70;;;;;;5052310;28;20457;-79
2022/06/08 04:10:07;;;;;;;6.75;3.00;;;14.90;90.30;;;;;;5053610;28;20203;-79
2022/06/08 04:12:34;;;;;;;6.03;3.40;;;14.90;90.00;;;;;;5056027;28;20238;-79
2022/06/08 04:15:01;;;;;;;5.38;2.63;;;14.80;90.30;;;;;;5050967;28;20802;-79
2022/06/08 04:17:29;;;;;;;9.33;2.53;;;14.80;89.60;;;;;;5053125;28;20214;-79
2022/06/08 04:19:56;;;;;;;5.13;2.53;;;14.80;89.20;;;;;;5052879;28;20494;-79
2022/06/08 04:22:30;;;;;;;3.15;2.95;;;14.80;89.10;;;;;;5054276;28;20453;-80
2022/06/08 04:24:57;;;;;;;5.27;2.73;;;14.90;88.20;;;;;;5037594;28;20206;-80
2022/06/08 04:27:24;;;;;;;3.57;3.00;;;14.80;87.60;;;;;;5055246;28;20515;-79
2022/06/08 04:29:52;;;;;;;3.80;3.00;;;14.80;87.70;;;;;;5049099;28;20532;-78
2022/06/08 04:32:19;;;;;;;4.00;2.90;;;14.90;87.00;;;;;;5033633;28;20441;-78
2022/06/08 04:34:50;;;;;;;3.30;2.57;;;14.90;87.00;;;;;;5033491;28;20458;-80
2022/06/08 04:37:17;;;;;;;2.70;2.20;;;15.00;86.00;;;;;;5038143;28;20481;-79
2022/06/08 04:39:44;;;;;;;3.90;2.70;;;15.00;85.60;;;;;;5042877;28;20497;-79
2022/06/08 04:42:11;;;;;;;4.20;2.60;;;15.00;85.00;;;;;;5043113;28;20492;-80
2022/06/08 04:44:38;;;;;;;4.00;3.10;;;15.10;84.00;;;;;;5041346;28;20429;-80
2022/06/08 04:47:05;;;;;;;8.57;3.13;;;15.10;83.40;;;;;;5040629;28;20493;-79
2022/06/08 04:49:32;;;;;;;3.33;2.50;;;15.20;81.00;;;;;;5041190;28;20946;-79
2022/06/08 04:52:01;;;;;;;3.57;2.17;;;15.20;79.80;;;;;;5040953;28;20552;-80
2022/06/08 04:54:28;;;;;;;2.73;2.50;;;15.20;79.30;;;;;;5041873;28;20511;-80
2022/06/08 04:56:55;;;;;;;3.27;2.30;;;15.30;79.50;;;;;;5042170;28;20456;-79
2022/06/08 04:59:22;;;;;;;4.47;2.57;;;15.50;79.70;;;;;;5037076;28;20460;-79
2022/06/08 05:01:49;;;;;;;4.37;2.40;;;15.90;78.40;;;;;;5036577;28;20443;-79
2022/06/08 05:04:16;;;;;;;5.80;2.30;;;16.90;73.60;;;;;;5036375;28;20954;-79
2022/06/08 05:06:43;;;;;;;4.43;2.50;;;18.10;65.00;;;;;;5036189;28;20517;-79
2022/06/08 05:09:11;;;;;;;3.07;2.20;;;19.00;57.20;;;;;;5036713;28;20454;-78
2022/06/08 05:11:38;;;;;;;3.27;2.17;;;20.00;51.20;;;;;;5036667;28;20461;-79
2022/06/08 05:14:05;;;;;;;4.00;2.10;;;20.80;48.90;;;;;;5036423;28;20425;-80
2022/06/08 05:16:32;;;;;;;2.73;1.93;;;21.50;46.80;;;;;;5035793;28;20769;-78
2022/06/08 05:18:59;;;;;;;2.20;1.93;;;22.20;43.40;;;;;;5035893;28;20825;-78
2022/06/08 05:21:26;;;;;;;5.60;1.80;;;22.80;42.20;;;;;;5036538;28;20796;-79
2022/06/08 05:23:53;;;;;;;2.27;1.77;;;23.40;41.80;;;;;;5036099;28;20464;-80
2022/06/08 05:26:21;;;;;;;1.50;1.40;;;23.90;38.80;;;;;;5036108;28;20942;-78
2022/06/08 05:28:48;;;;;;;5.83;2.00;;;24.00;36.70;;;;;;5036257;28;20479;-77
2022/06/08 05:31:15;;;;;;;7.77;1.63;;;24.10;37.10;;;;;;5036292;28;20432;-79
2022/06/08 05:33:42;;;;;;;2.50;1.50;;;24.00;36.90;;;;;;5036841;28;20444;-78
2022/06/08 05:36:10;;;;;;;2.17;1.60;;;24.30;36.40;;;;;;5036961;28;20436;-78
2022/06/08 05:38:37;;;;;;;2.40;1.83;;;24.50;36.00;;;;;;5036039;28;20477;-77
2022/06/08 05:41:04;;;;;;;1.70;1.40;;;24.60;34.80;;;;;;5036159;28;20503;-78
2022/06/08 05:43:32;;;;;;;4.23;2.00;;;24.30;34.30;;;;;;5036734;28;20427;-78
2022/06/08 05:45:59;;;;;;;1.70;1.50;;;24.30;35.60;;;;;;5035777;28;20904;-78
2022/06/08 05:48:26;;;;;;;2.93;1.77;;;24.60;34.60;;;;;;5036038;28;20474;-78
2022/06/08 05:50:53;;;;;;;2.70;1.40;;;24.50;34.50;;;;;;5037032;28;20454;-78
2022/06/08 05:53:19;;;;;;;3.40;1.73;;;24.70;34.50;;;;;;5044726;28;20485;-79
2022/06/08 05:55:46;;;;;;;1.47;1.37;;;25.20;33.80;;;;;;5044145;28;20958;-77
2022/06/08 05:58:13;;;;;;;2.80;1.77;;;25.50;33.50;;;;;;5038979;28;20527;-78
2022/06/08 06:00:42;;;;;;;4.07;2.17;;;25.80;32.90;;;;;;5045812;28;20492;-78
2022/06/08 06:03:10;;;;;;;4.80;1.70;;;26.00;32.10;;;;;;5041062;28;20466;-79
2022/06/08 06:05:41;;;;;;;2.57;1.73;;;26.30;32.10;;;;;;5042952;28;20460;-78
2022/06/08 06:08:08;;;;;;;1.67;1.57;;;26.00;30.90;;;;;;5037044;28;20504;-79
2022/06/08 06:10:37;;;;;;;5.60;2.00;;;24.50;34.40;;;;;;5038276;28;20454;-79
2022/06/08 06:13:04;;;;;;;1.90;1.20;;;24.80;33.90;;;;;;5036181;28;20509;-78
2022/06/08 06:15:31;;;;;;;3.23;1.97;;;24.60;34.80;;;;;;5036518;28;20982;-79
2022/06/08 06:17:59;;;;;;;2.07;1.90;;;25.30;33.30;;;;;;5035301;28;20460;-79
2022/06/08 06:20:26;;;;;;;5.00;2.20;;;24.90;35.00;;;;;;5035798;28;20527;-78
2022/06/08 06:22:53;;;;;;;1.80;1.50;;;24.30;35.60;;;;;;5035838;28;20420;-78
2022/06/08 06:25:20;;;;;;;3.50;2.20;;;23.50;38.20;;;;;;5036031;28;20449;-78
2022/06/08 06:27:47;;;;;;;3.80;1.90;;;22.90;39.00;;;;;;5035859;28;20563;-77
2022/06/08 06:30:15;;;;;;;2.73;1.77;;;23.80;37.10;;;;;;5038061;28;20545;-78
2022/06/08 06:32:44;;;;;;;2.47;1.60;;;24.50;36.10;;;;;;5045641;28;20426;-79
2022/06/08 06:35:18;;;;;;;3.17;1.93;;;24.90;34.10;;;;;;5043665;28;20431;-78
2022/06/08 06:37:46;;;;;;;9.57;2.10;;;25.50;33.50;;;;;;5045894;28;20493;-78
2022/06/08 06:40:13;;;;;;;4.50;1.80;;;25.90;33.80;;;;;;5049057;28;20466;-79
2022/06/08 06:42:40;;;;;;;5.43;1.67;;;26.00;33.80;;;;;;5048779;28;20494;-78
2022/06/08 06:45:12;;;;;;;1.60;1.50;;;26.40;31.70;;;;;;5049086;28;20433;-78
2022/06/08 06:47:39;;;;;;;3.37;1.63;;;24.90;34.30;;;;;;5052530;28;20571;-80
2022/06/08 06:50:08;;;;;;;5.23;1.40;;;24.60;35.20;;;;;;5055131;28;20422;-78
2022/06/08 06:52:36;;;;;;;3.50;1.40;;;25.40;33.40;;;;;;5051183;28;20534;-78
2022/06/08 06:55:03;;;;;;;2.70;1.47;;;25.60;33.50;;;;;;5048412;28;20426;-79
2022/06/08 06:57:30;;;;;;;5.70;1.50;;;25.60;32.90;;;;;;5052030;28;20445;-79
2022/06/08 06:59:57;;;;;;;4.87;1.80;;;25.60;32.70;;;;;;5047589;28;20433;-78
2022/06/08 07:02:24;;;;;;;2.50;1.73;;;24.90;33.00;;;;;;5046132;28;20428;-77
2022/06/08 07:04:51;;;;;;;4.90;1.53;;;23.30;37.00;;;;;;5044831;28;20462;-78
2022/06/08 07:07:18;;;;;;;4.00;1.80;;;22.90;36.70;;;;;;5035889;28;20532;-78
2022/06/08 07:09:46;;;;;;;8.63;1.50;;;22.20;38.50;;;;;;5034911;28;20794;-79
2022/06/08 07:12:14;;;;;;;3.00;1.73;;;22.10;39.10;;;;;;5035212;28;20501;-78
2022/06/08 07:14:41;;;;;;;3.60;1.60;;;22.10;40.40;;;;;;5035056;28;20706;-77
2022/06/08 07:17:09;;;;;;;3.90;1.80;;;21.90;39.50;;;;;;5036381;28;20524;-77
2022/06/08 07:19:36;;;;;;;3.43;1.37;;;21.60;40.40;;;;;;5036229;28;20471;-78
2022/06/08 07:22:03;;;;;;;3.40;1.77;;;21.30;40.00;;;;;;5035357;28;20454;-78
2022/06/08 07:24:33;;;;;;;3.07;1.67;;;21.40;40.20;;;;;;5035584;28;20439;-78
2022/06/08 07:27:02;;;;;;;2.93;1.60;;;21.60;40.20;;;;;;5039271;28;20462;-78
2022/06/08 07:29:30;;;;;;;1.93;1.50;;;21.70;40.40;;;;;;5044691;28;20549;-77
2022/06/08 07:31:57;;;;;;;1.87;1.10;;;21.70;39.60;;;;;;5046748;28;20525;-77
2022/06/08 07:34:24;;;;;;;3.60;1.73;;;21.70;39.80;;;;;;5048096;28;20630;-81
2022/06/08 07:36:51;;;;;;;2.80;1.40;;;21.70;40.40;;;;;;5044660;28;20449;-78
2022/06/08 07:39:21;;;;;;;3.77;1.87;;;21.40;40.10;;;;;;5046161;28;20496;-80
2022/06/08 07:41:49;;;;;;;3.20;1.83;;;21.50;40.20;;;;;;5046774;28;20421;-77
2022/06/08 07:44:18;;;;;;;5.90;1.50;;;21.50;39.40;;;;;;5042438;28;20462;-77
2022/06/08 07:46:46;;;;;;;5.10;1.67;;;21.50;40.20;;;;;;5043188;28;20501;-76
2022/06/08 07:51:58;;;;;;;2.30;1.40;;;21.50;38.80;;;;;;5046370;28;20416;-79
2022/06/08 07:54:28;;;;;;;2.10;1.57;;;21.50;40.20;;;;;;5042161;28;20568;-79
2022/06/08 07:56:56;;;;;;;2.50;1.50;;;21.50;40.20;;;;;;5039423;28;20483;-79
2022/06/08 07:59:27;;;;;;;3.20;1.20;;;21.40;40.10;;;;;;5040750;28;20430;-78
2022/06/08 08:01:54;;;;;;;2.40;1.30;;;21.60;40.30;;;;;;5042632;28;20528;-80
2022/06/08 08:04:21;;;;;;;2.97;1.40;;;21.70;40.10;;;;;;5042084;28;20472;-79
2022/06/08 08:06:48;;;;;;;3.20;1.50;;;21.70;39.00;;;;;;5049574;28;20460;-79
2022/06/08 08:09:17;;;;;;;1.73;1.10;;;21.90;39.20;;;;;;5043187;28;20468;-79
2022/06/08 08:11:45;;;;;;;2.40;1.90;;;22.20;38.80;;;;;;5044102;28;20458;-79
2022/06/08 08:14:13;;;;;;;2.57;1.50;;;22.50;36.30;;;;;;5043490;28;20432;-80
2022/06/08 08:16:42;;;;;;;2.40;1.20;;;22.70;34.30;;;;;;5044050;28;20463;-79
2022/06/08 08:19:10;;;;;;;2.47;1.30;;;22.70;35.70;;;;;;5043181;28;20427;-80
2022/06/08 08:21:38;;;;;;;3.93;1.23;;;22.80;35.00;;;;;;5044624;28;20513;-79
2022/06/08 08:24:05;;;;;;;1.97;1.30;;;23.00;33.50;;;;;;5050349;28;20448;-79
2022/06/08 08:26:31;;;;;;;2.90;1.27;;;22.90;34.10;;;;;;5055059;28;20461;-79
2022/06/08 08:28:59;;;;;;;5.27;1.67;;;22.90;35.30;;;;;;5053095;28;20462;-79
2022/06/08 08:31:26;;;;;;;1.50;1.10;;;22.80;34.80;;;;;;5052219;28;20421;-79
2022/06/08 08:33:54;;;;;;;4.80;1.60;;;23.00;35.20;;;;;;5043838;28;20440;-79
2022/06/08 08:36:21;;;;;;;3.70;1.20;;;23.10;33.40;;;;;;5046064;28;20522;-80
2022/06/08 08:38:48;;;;;;;3.37;1.10;;;23.40;33.20;;;;;;5048042;28;20444;-80
2022/06/08 08:44:07;;;;;;;3.23;1.30;;;23.40;31.60;;;;;;5042385;28;20471;-80
2022/06/08 08:46:44;;;;;;;4.10;1.30;;;23.70;31.90;;;;;;5042113;28;20826;-78
2022/06/08 08:49:19;;;;;;;4.40;1.90;;;23.80;32.00;;;;;;5042380;28;20470;-81
2022/06/08 08:51:53;;;;;;;1.83;1.10;;;24.10;30.30;;;;;;5043902;28;20461;-79
2022/06/08 08:54:28;;;;;;;2.27;1.10;;;24.40;30.50;;;;;;5042737;28;20453;-80
2022/06/08 08:57:05;;;;;;;5.83;1.20;;;24.40;29.60;;;;;;5043412;28;20471;-79
2022/06/08 08:59:33;;;;;;;4.27;1.37;;;23.60;31.80;;;;;;5042794;28;20450;-79
2022/06/08 09:02:00;;;;;;;1.73;1.23;;;23.60;31.80;;;;;;5043222;28;20525;-80
2022/06/08 09:04:32;;;;;;;1.33;1.00;;;23.60;29.40;;;;;;5042325;28;20457;-79
2022/06/08 09:07:04;;;;;;;1.90;1.00;;;23.90;29.90;;;;;;5041829;28;20941;-80
2022/06/08 09:09:34;;;;;;;3.53;1.20;;;24.00;29.80;;;;;;5042523;28;21027;-78
2022/06/08 09:12:01;;;;;;;1.27;0.90;;;24.40;29.70;;;;;;5044947;28;20488;-80
2022/06/08 09:14:46;;;;;;;2.53;1.10;;;24.70;29.60;;;;;;5046626;28;20459;-79
2022/06/08 09:17:16;;;;;;;3.83;1.43;;;24.70;29.10;;;;;;5048378;28;20492;-80
2022/06/08 09:19:48;;;;;;;3.30;1.30;;;24.60;28.10;;;;;;5044685;28;20457;-79
2022/06/08 09:22:24;;;;;;;2.57;1.40;;;24.40;28.00;;;;;;5049550;28;20525;-78
2022/06/08 09:24:54;;;;;;;3.10;1.00;;;24.40;29.00;;;;;;5054849;28;20515;-79
2022/06/08 09:27:25;;;;;;;3.23;1.03;;;24.50;28.00;;;;;;5053414;28;20465;-80
2022/06/08 09:30:01;;;;;;;2.10;1.37;;;24.30;28.40;;;;;;5046436;28;20884;-80
2022/06/08 09:32:32;;;;;;;7.93;1.53;;;24.50;29.00;;;;;;5045401;28;20424;-80
2022/06/08 09:35:03;;;;;;;3.33;1.60;;;24.70;29.50;;;;;;5046704;28;20436;-80
2022/06/08 09:37:30;;;;;;;1.60;1.23;;;24.70;29.50;;;;;;5045942;28;20452;-80
2022/06/08 09:40:01;;;;;;;3.10;1.40;;;24.80;29.30;;;;;;5042610;28;20511;-77
2022/06/08 09:42:45;;;;;;;4.27;1.73;;;25.00;29.10;;;;;;5043564;28;20471;-79
2022/06/08 09:45:38;;;;;;;3.07;1.40;;;25.20;29.20;;;;;;5046172;28;20429;-80
2022/06/08 09:52:01;;;;;;;3.90;1.20;;;25.50;29.50;;;;;;4998440;28;20426;-81
2022/06/08 09:54:38;;;;;;;2.37;1.63;;;25.80;27.90;;;;;;5045357;28;20996;-83
2022/06/08 09:57:20;;;;;;;1.73;1.40;;;25.20;28.50;;;;;;5047470;28;20474;-80
2022/06/08 10:00:21;;;;;;;3.50;1.40;;;24.80;29.60;;;;;;5048973;28;20433;-80
2022/06/08 10:03:01;;;;;;;5.60;1.67;;;24.90;29.50;;;;;;5047505;28;20509;-79
2022/06/08 10:05:40;;;;;;;3.40;1.43;;;25.30;29.30;;;;;;5046937;28;20943;-81
2022/06/08 10:08:21;;;;;;;3.33;1.60;;;24.90;29.80;;;;;;5051213;28;20483;-80
2022/06/08 10:10:55;;;;;;;4.20;2.13;;;24.70;29.90;;;;;;5052968;28;20537;-77
2022/06/08 10:13:34;;;;;;;4.07;1.50;;;24.70;30.40;;;;;;5046207;28;20425;-77
2022/06/08 10:16:05;;;;;;;3.77;1.30;;;24.90;30.00;;;;;;5039331;28;20511;-78
2022/06/08 10:18:47;;;;;;;5.90;1.23;;;25.10;28.30;;;;;;5038699;28;20458;-79
2022/06/08 10:21:17;;;;;;;3.33;1.70;;;25.00;29.10;;;;;;5047524;28;20409;-79
2022/06/08 10:23:54;;;;;;;1.50;1.30;;;25.10;28.40;;;;;;5037414;28;20501;-79
2022/06/08 10:26:26;;;;;;;3.73;1.40;;;25.40;28.70;;;;;;5036504;28;20454;-77
2022/06/08 10:28:58;;;;;;;1.97;1.60;;;25.40;28.30;;;;;;5035686;28;20497;-78
2022/06/08 10:31:33;;;;;;;4.97;1.87;;;25.50;28.70;;;;;;5035878;28;20859;-78
2022/06/08 10:34:06;;;;;;;1.90;1.30;;;25.40;29.20;;;;;;5043343;28;20401;-79
2022/06/08 10:36:34;;;;;;;1.63;1.10;;;25.70;28.20;;;;;;5041907;28;20877;-77
2022/06/08 10:39:04;;;;;;;5.60;1.83;;;26.00;27.90;;;;;;5037652;28;20481;-77
2022/06/08 10:44:34;;;;;;;2.50;1.20;;;26.90;26.30;;;;;;5039485;28;20437;-79
2022/06/08 10:47:21;;;;;;;2.60;1.23;;;27.50;24.90;;;;;;5039684;28;20452;-77
2022/06/08 10:49:51;;;;;;;5.63;1.20;;;27.30;24.80;;;;;;5040836;28;20486;-79
2022/06/08 10:52:29;;;;;;;6.33;1.43;;;26.90;25.30;;;;;;5038880;28;20446;-77
2022/06/08 10:55:35;;;;;;;2.60;1.50;;;27.10;23.80;;;;;;5042580;28;20541;-78
2022/06/08 10:58:07;;;;;;;2.80;1.20;;;26.90;23.30;;;;;;5049338;28;20460;-80
2022/06/08 11:01:13;;;;;;;7.93;1.50;;;27.00;23.50;;;;;;5043591;28;20547;-78
2022/06/08 11:04:01;;;;;;;3.70;1.10;;;27.30;23.70;;;;;;5040145;28;20472;-75
2022/06/08 11:06:55;;;;;;;2.47;1.43;;;27.00;23.40;;;;;;5040587;28;20902;-77
2022/06/08 11:09:43;;;;;;;1.57;1.10;;;27.00;21.20;;;;;;5037628;28;20504;-76
2022/06/08 11:12:37;;;;;;;2.40;0.80;;;27.30;21.70;;;;;;5045127;28;20410;-75
2022/06/08 11:15:15;;;;;;;1.87;1.00;;;27.80;21.60;;;;;;5044389;28;20527;-76
2022/06/08 11:17:49;;;;;;;4.23;1.47;;;27.80;21.40;;;;;;5055544;28;20457;-77
2022/06/08 11:20:20;;;;;;;3.53;1.10;;;27.10;21.20;;;;;;5057788;28;20503;-78
2022/06/08 11:22:52;;;;;;;6.57;1.33;;;26.60;19.90;;;;;;5056912;28;20435;-77
2022/06/08 11:25:24;;;;;;;2.97;1.30;;;26.10;20.60;;;;;;5056409;28;20438;-79
2022/06/08 11:28:28;;;;;;;3.33;0.97;;;26.00;21.30;;;;;;5054853;28;20452;-80
2022/06/08 11:30:58;;;;;;;1.73;0.80;;;26.20;21.80;;;;;;5053723;28;20505;-80
2022/06/08 11:33:56;;;;;;;3.40;1.13;;;26.50;18.70;;;;;;5052639;28;20453;-78
2022/06/08 11:36:44;;;;;;;1.70;0.87;;;26.90;19.40;;;;;;5050447;28;20520;-79
2022/06/08 11:39:22;;;;;;;4.37;1.23;;;27.60;19.30;;;;;;5051147;28;20441;-81
2022/06/08 11:42:02;;;;;;;2.30;1.10;;;28.00;19.30;;;;;;5044432;28;20437;-80
2022/06/08 11:44:35;;;;;;;1.50;1.10;;;27.90;17.80;;;;;;5049022;28;20464;-77
2022/06/08 11:47:17;;;;;;;2.20;1.00;;;27.60;18.90;;;;;;5050159;28;20721;-80
2022/06/08 11:49:46;;;;;;;3.90;1.17;;;27.30;19.60;;;;;;5045455;28;20493;-76
2022/06/08 11:52:24;;;;;;;2.10;1.13;;;27.40;20.10;;;;;;5035011;28;20428;-76
2022/06/08 11:55:09;;;;;;;4.43;1.20;;;27.60;19.90;;;;;;5036246;28;20945;-77
2022/06/08 11:57:38;;;;;;;2.97;1.07;;;27.70;20.10;;;;;;5038492;28;20481;-76
2022/06/08 12:00:34;;;;;;;3.97;1.20;;;27.80;18.60;;;;;;5041481;28;20508;-79
2022/06/08 12:03:06;;;;;;;3.23;0.97;;;27.70;18.80;;;;;;5038085;28;20469;-79
2022/06/08 12:05:36;;;;;;;1.57;0.90;;;27.80;19.60;;;;;;5039878;28;20457;-76
2022/06/08 12:08:13;;;;;;;0.90;0.80;;;28.00;17.80;;;;;;5036241;28;20645;-77
2022/06/08 12:10:40;;;;;;;3.47;1.27;;;27.50;19.10;;;;;;5038772;28;20496;-79
2022/06/08 12:13:18;;;;;;;4.27;1.03;;;27.60;18.00;;;;;;5045100;28;20465;-76
2022/06/08 12:15:49;;;;;;;1.30;1.00;;;27.60;17.20;;;;;;5045421;28;20536;-77
2022/06/08 12:18:44;;;;;;;2.47;0.80;;;27.60;17.20;;;;;;5034001;28;20490;-77
2022/06/08 12:21:33;;;;;;;1.80;0.90;;;28.10;17.50;;;;;;5033576;28;20479;-76
2022/06/08 12:24:21;;;;;;;2.00;0.93;;;28.30;17.60;;;;;;5034099;28;20462;-80
2022/06/08 12:26:57;;;;;;;2.50;0.80;;;28.30;17.60;;;;;;5039823;28;20777;-77
2022/06/08 12:29:29;;;;;;;2.20;0.90;;;27.70;17.20;;;;;;5035202;28;20503;-77
2022/06/08 12:32:16;;;;;;;2.03;1.10;;;27.40;18.60;;;;;;5040790;28;20458;-79
2022/06/08 12:34:46;;;;;;;2.97;0.90;;;27.40;18.30;;;;;;5042976;28;20934;-79
2022/06/08 12:37:50;;;;;;;3.67;1.20;;;27.10;18.90;;;;;;5053516;28;20506;-78
2022/06/08 12:40:24;;;;;;;3.73;0.93;;;26.90;19.60;;;;;;5017824;28;20473;-78
2022/06/08 12:42:55;;;;;;;2.60;1.20;;;26.70;19.90;;;;;;5052787;28;20501;-79
2022/06/08 12:45:27;;;;;;;2.70;1.17;;;26.60;19.30;;;;;;5054408;28;20511;-81
2022/06/08 12:47:55;;;;;;;3.63;0.90;;;26.30;20.70;;;;;;5046661;28;20477;-78
2022/06/08 12:50:24;;;;;;;4.60;1.10;;;26.60;19.80;;;;;;5039028;28;20476;-79
2022/06/08 12:52:51;;;;;;;3.40;1.10;;;26.80;19.60;;;;;;5045267;28;20481;-80
2022/06/08 12:55:21;;;;;;;5.17;0.93;;;26.90;18.70;;;;;;5041392;28;20559;-79
2022/06/08 12:57:48;;;;;;;3.90;1.67;;;26.80;19.60;;;;;;5043979;28;20482;-79
2022/06/08 13:00:18;;;;;;;5.37;1.20;;;26.70;19.50;;;;;;5040355;28;20454;-80
2022/06/08 13:02:46;;;;;;;2.10;1.03;;;26.30;19.90;;;;;;5038608;28;20452;-78
2022/06/08 13:05:21;;;;;;;3.73;1.20;;;26.50;19.80;;;;;;5042810;28;20468;-80
2022/06/08 13:07:49;;;;;;;3.50;0.70;;;26.70;19.90;;;;;;5053172;28;20547;-80
2022/06/08 13:10:17;;;;;;;3.97;1.07;;;26.90;19.00;;;;;;5053314;28;20515;-78
2022/06/08 13:12:46;;;;;;;2.17;0.90;;;26.90;18.30;;;;;;5045221;28;20514;-78
2022/06/08 13:15:19;;;;;;;1.97;1.30;;;26.60;18.40;;;;;;5040520;28;20543;-77
2022/06/08 13:17:46;;;;;;;5.03;1.10;;;26.60;18.50;;;;;;5047380;28;20467;-79
2022/06/08 13:20:18;;;;;;;6.37;1.47;;;26.60;19.10;;;;;;5041728;28;20443;-78
2022/06/08 13:22:46;;;;;;;3.57;1.20;;;26.10;20.20;;;;;;5039599;28;20456;-80
2022/06/08 13:25:15;;;;;;;2.00;0.80;;;25.90;20.20;;;;;;5043515;28;20541;-80